createdAt,value
2023-01-29T00:01:18.697Z,38.46
2023-01-29T00:06:20.861Z,38.54
2023-01-29T00:11:24.423Z,38.59
2023-01-29T00:16:26.492Z,38.88
2023-01-29T00:21:31.098Z,39.15
2023-01-29T00:26:33.205Z,39.06
2023-01-29T00:31:35.383Z,38.74
2023-01-29T00:36:37.406Z,38.63
2023-01-29T00:41:58.078Z,38.58
2023-01-29T00:47:00.520Z,38.63
2023-01-29T00:52:21.289Z,38.65
2023-01-29T00:57:25.521Z,38.49
2023-01-29T01:02:47.271Z,38.49
2023-01-29T01:07:51.888Z,38.56
2023-01-29T01:12:55.646Z,38.63
2023-01-29T01:18:00.354Z,38.52
2023-01-29T01:23:02.397Z,39.80
2023-01-29T01:28:04.964Z,39.51
2023-01-29T01:33:06.961Z,38.94
2023-01-29T01:38:08.718Z,38.67
2023-01-29T01:43:11.142Z,38.83
2023-01-29T01:48:25.645Z,38.79
2023-01-29T01:53:34.749Z,38.75
2023-01-29T01:58:41.313Z,38.80
2023-01-29T02:04:09.196Z,39.01
2023-01-29T02:09:35.170Z,38.90
2023-01-29T02:14:39.856Z,38.80
2023-01-29T02:20:10.179Z,38.89
2023-01-29T02:25:49.842Z,38.57
2023-01-29T02:31:06.409Z,38.42
2023-01-29T02:36:32.540Z,38.56
2023-01-29T02:42:02.100Z,38.59
2023-01-29T02:47:22.103Z,38.69
2023-01-29T02:52:28.133Z,38.64
2023-01-29T02:57:35.013Z,38.63
2023-01-29T03:03:05.498Z,38.58
2023-01-29T03:08:11.478Z,38.58
2023-01-29T03:13:17.852Z,38.47
2023-01-29T03:18:26.455Z,38.69
2023-01-29T03:23:54.211Z,38.82
2023-01-29T03:29:15.181Z,38.46
2023-01-29T03:34:28.643Z,38.71
2023-01-29T03:39:32.189Z,38.62
2023-01-29T03:45:01.824Z,38.78
2023-01-29T03:50:46.899Z,38.82
2023-01-29T03:56:10.413Z,38.39
2023-01-29T04:01:25.837Z,38.67
2023-01-29T04:06:32.065Z,38.23
2023-01-29T04:11:38.634Z,38.64
2023-01-29T04:16:44.778Z,38.95
2023-01-29T04:21:50.354Z,38.40
2023-01-29T04:27:16.406Z,38.62
2023-01-29T04:32:30.066Z,38.45
2023-01-29T04:37:32.465Z,38.64
2023-01-29T04:42:44.647Z,38.49
2023-01-29T04:48:26.797Z,38.27
2023-01-29T04:53:49.736Z,38.46
2023-01-29T04:59:04.697Z,38.79
2023-01-29T05:04:11.931Z,38.91
2023-01-29T05:09:17.067Z,38.64
2023-01-29T05:14:22.628Z,38.84
2023-01-29T05:19:24.441Z,38.48
2023-01-29T05:24:27.106Z,38.43
2023-01-29T05:29:29.274Z,38.55
2023-01-29T05:34:31.146Z,38.73
2023-01-29T05:39:33.314Z,38.46
2023-01-29T05:44:35.101Z,38.47
2023-01-29T05:49:38.725Z,38.42
2023-01-29T05:54:40.855Z,38.57
2023-01-29T05:59:42.918Z,38.56
2023-01-29T06:04:44.850Z,38.41
2023-01-29T06:09:46.848Z,38.26
2023-01-29T06:14:48.737Z,38.54
2023-01-29T06:19:51.019Z,38.38
2023-01-29T06:24:53.051Z,38.65
2023-01-29T06:29:54.879Z,38.31
2023-01-29T06:34:57.160Z,38.26
2023-01-29T06:39:59.051Z,38.71
2023-01-29T06:45:00.892Z,38.78
2023-01-29T06:50:03.619Z,38.73
2023-01-29T06:55:05.973Z,38.59
2023-01-29T07:00:10.187Z,38.73
2023-01-29T07:05:12.150Z,38.52
2023-01-29T07:10:14.437Z,38.68
2023-01-29T07:15:20.575Z,38.58
2023-01-29T07:20:22.704Z,38.35
2023-01-29T07:25:25.458Z,38.24
2023-01-29T07:30:27.652Z,38.45
2023-01-29T07:35:29.562Z,38.16
2023-01-29T07:40:31.692Z,38.47
2023-01-29T07:45:35.814Z,38.46
2023-01-29T07:50:37.804Z,38.25
2023-01-29T07:55:41.453Z,38.77
2023-01-29T08:00:44.004Z,38.42
2023-01-29T08:05:46.629Z,38.28
2023-01-29T08:10:48.703Z,38.61
2023-01-29T08:15:50.735Z,38.36
2023-01-29T08:20:52.983Z,38.57
2023-01-29T08:25:55.003Z,38.22
2023-01-29T08:30:57.197Z,38.19
2023-01-29T08:35:59.235Z,38.68
2023-01-29T08:41:01.136Z,38.61
2023-01-29T08:46:07.757Z,38.59
2023-01-29T08:51:09.695Z,39.72
2023-01-29T08:56:11.954Z,39.30
2023-01-29T09:01:15.325Z,38.89
2023-01-29T09:06:17.421Z,38.88
2023-01-29T09:11:19.454Z,39.08
2023-01-29T09:16:21.369Z,39.00
2023-01-29T09:21:23.520Z,38.82
2023-01-29T09:26:25.826Z,39.00
2023-01-29T09:31:28.162Z,39.09
2023-01-29T09:36:30.286Z,39.18
2023-01-29T09:42:00.356Z,38.86
2023-01-29T09:47:05.289Z,38.92
2023-01-29T09:52:27.862Z,38.58
2023-01-29T09:58:11.700Z,38.55
2023-01-29T10:03:16.177Z,38.27
2023-01-29T10:09:03.929Z,40.05
2023-01-29T10:14:28.988Z,43.20
2023-01-29T10:20:03.393Z,41.17
2023-01-29T10:25:10.708Z,40.70
2023-01-29T10:30:29.967Z,40.48
2023-01-29T10:35:36.378Z,39.79
2023-01-29T10:40:48.620Z,39.49
2023-01-29T10:46:30.240Z,39.33
2023-01-29T10:51:58.639Z,41.78
2023-01-29T10:57:15.328Z,43.61
2023-01-29T11:02:22.717Z,43.39
2023-01-29T11:07:25.328Z,42.27
2023-01-29T11:12:33.660Z,40.75
2023-01-29T11:17:35.420Z,40.71
2023-01-29T11:22:37.112Z,40.18
2023-01-29T11:27:50.759Z,40.00
2023-01-29T11:33:24.131Z,39.23
2023-01-29T11:38:28.643Z,39.56
2023-01-29T11:43:31.737Z,39.37
2023-01-29T11:48:42.241Z,39.47
2023-01-29T11:53:49.970Z,40.38
2023-01-29T11:58:55.633Z,39.58
2023-01-29T12:03:57.609Z,39.53
2023-01-29T12:09:02.488Z,39.40
2023-01-29T12:14:06.322Z,39.24
2023-01-29T12:19:31.639Z,39.05
2023-01-29T12:24:51.864Z,38.98
2023-01-29T12:30:04.453Z,38.54
2023-01-29T12:35:24.966Z,38.42
2023-01-29T12:40:31.725Z,38.39
2023-01-29T12:45:37.416Z,38.51
2023-01-29T12:50:39.869Z,39.18
2023-01-29T12:55:41.516Z,39.19
2023-01-29T13:00:46.970Z,39.41
2023-01-29T13:05:56.431Z,39.44
2023-01-29T13:11:02.300Z,39.16
2023-01-29T13:16:10.398Z,39.44
2023-01-29T13:21:22.504Z,39.17
2023-01-29T13:26:24.830Z,39.41
2023-01-29T13:31:37.837Z,39.15
2023-01-29T13:36:45.941Z,39.22
2023-01-29T13:41:47.889Z,39.65
2023-01-29T13:47:29.207Z,39.54
2023-01-29T13:52:36.361Z,39.85
2023-01-29T13:57:44.288Z,39.60
2023-01-29T14:02:46.267Z,39.58
2023-01-29T14:07:50.482Z,39.90
2023-01-29T14:13:24.024Z,40.11
2023-01-29T14:18:26.827Z,40.17
2023-01-29T14:23:51.505Z,40.05
2023-01-29T14:29:02.726Z,40.01
2023-01-29T14:34:14.967Z,41.87
2023-01-29T14:39:30.931Z,41.05
2023-01-29T14:44:44.588Z,40.88
2023-01-29T14:49:49.600Z,40.70
2023-01-29T14:54:53.286Z,40.63
2023-01-29T15:00:00.920Z,41.89
2023-01-29T15:05:05.423Z,41.64
2023-01-29T15:10:25.513Z,41.43
2023-01-29T15:15:57.530Z,42.02
2023-01-29T15:21:12.178Z,41.95
2023-01-29T15:26:26.960Z,42.17
2023-01-29T15:31:29.873Z,41.83
2023-01-29T15:36:32.506Z,41.96
2023-01-29T15:41:34.393Z,41.96
2023-01-29T15:46:42.263Z,42.86
2023-01-29T15:51:44.290Z,43.37
2023-01-29T15:56:50.790Z,42.20
2023-01-29T16:01:53.443Z,42.38
2023-01-29T16:06:56.658Z,42.33
2023-01-29T16:11:59.826Z,42.01
2023-01-29T16:17:35.801Z,43.32
2023-01-29T16:22:38.304Z,42.83
2023-01-29T16:27:43.690Z,42.59
2023-01-29T16:32:45.981Z,42.73
2023-01-29T16:37:50.818Z,42.39
2023-01-29T16:43:11.484Z,42.39
2023-01-29T16:48:31.144Z,42.58
2023-01-29T16:53:32.959Z,42.42
2023-01-29T16:58:35.859Z,42.48
2023-01-29T17:03:39.751Z,43.07
2023-01-29T17:08:43.265Z,45.71
2023-01-29T17:13:46.204Z,44.53
2023-01-29T17:18:48.480Z,43.92
2023-01-29T17:23:50.878Z,43.59
2023-01-29T17:28:54.641Z,43.54
2023-01-29T17:33:57.031Z,43.49
2023-01-29T17:38:58.826Z,42.74
2023-01-29T17:44:00.524Z,44.71
2023-01-29T17:49:04.972Z,43.81
2023-01-29T17:54:07.052Z,43.66
2023-01-29T17:59:16.347Z,43.12
2023-01-29T18:04:18.442Z,42.98
2023-01-29T18:09:21.539Z,43.76
2023-01-29T18:14:23.352Z,43.45
2023-01-29T18:19:31.310Z,43.11
2023-01-29T18:24:34.346Z,42.99
2023-01-29T18:29:36.620Z,43.16
2023-01-29T18:34:38.567Z,43.15
2023-01-29T18:39:40.644Z,43.07
2023-01-29T18:44:42.556Z,42.87
2023-01-29T18:49:44.220Z,42.82
2023-01-29T18:54:46.311Z,42.95
2023-01-29T18:59:48.049Z,42.94
2023-01-29T19:04:50.034Z,43.98
2023-01-29T19:09:51.942Z,44.29
2023-01-29T19:14:53.755Z,43.90
2023-01-29T19:20:02.294Z,43.32
2023-01-29T19:25:04.569Z,43.76
2023-01-29T19:30:07.702Z,43.62
2023-01-29T19:35:09.991Z,43.52
2023-01-29T19:40:12.295Z,43.59
2023-01-29T19:45:14.409Z,43.45
2023-01-29T19:50:16.931Z,43.59
2023-01-29T19:55:20.911Z,43.38
2023-01-29T20:00:23.188Z,43.51
2023-01-29T20:05:27.468Z,42.88
2023-01-29T20:10:29.336Z,42.59
2023-01-29T20:15:31.169Z,45.55
2023-01-29T20:20:33.262Z,45.14
2023-01-29T20:25:36.043Z,44.60
2023-01-29T20:30:39.099Z,44.11
2023-01-29T20:35:41.191Z,44.30
2023-01-29T20:40:42.996Z,44.33
2023-01-29T20:45:45.202Z,44.09
2023-01-29T20:50:47.284Z,44.02
2023-01-29T20:55:49.198Z,44.25
2023-01-29T21:00:51.176Z,44.09
2023-01-29T21:05:54.438Z,43.54
2023-01-29T21:10:56.472Z,44.05
2023-01-29T21:15:59.189Z,43.40
2023-01-29T21:21:01.502Z,43.46
2023-01-29T21:26:07.997Z,43.67
2023-01-29T21:31:11.251Z,43.52
2023-01-29T21:36:13.221Z,43.53
2023-01-29T21:41:15.262Z,43.53
2023-01-29T21:46:17.432Z,43.37
2023-01-29T21:51:19.905Z,43.54
2023-01-29T21:56:21.824Z,43.31
2023-01-29T22:01:37.571Z,45.08
2023-01-29T22:06:40.526Z,43.58
2023-01-29T22:11:42.457Z,49.11
2023-01-29T22:16:45.652Z,47.24
2023-01-29T22:21:47.626Z,46.44
2023-01-29T22:26:49.944Z,45.73
2023-01-29T22:31:52.034Z,44.93
2023-01-29T22:36:54.107Z,44.92
2023-01-29T22:41:56.115Z,44.88
2023-01-29T22:46:57.942Z,44.28
2023-01-29T22:52:12.068Z,43.78
2023-01-29T22:57:15.754Z,44.12
2023-01-29T23:02:17.688Z,43.44
2023-01-29T23:07:19.535Z,43.03
2023-01-29T23:12:21.697Z,43.01
2023-01-29T23:17:23.838Z,43.03
2023-01-29T23:22:25.672Z,42.38
2023-01-29T23:27:27.778Z,42.26
2023-01-29T23:32:29.736Z,42.72
2023-01-29T23:37:31.576Z,42.52
2023-01-29T23:42:33.531Z,42.19
2023-01-29T23:47:35.566Z,42.13
2023-01-29T23:52:37.557Z,41.65
2023-01-29T23:57:39.484Z,41.64
